Time;durP1;ratioP1;P1;durP2;ratioP2;P2;SDS_P1;SDS_P2;PMS_P1;PMS_P2;Temp;Humidity;BMP_temperature;BMP_pressure;BME280_temperature;BME280_humidity;BME280_pressure;Samples;Min_cycle;Max_cycle;Signal;HPM_P1;HPM_P2
2024/01/05 00:01:51;;;;;;;55.90;2.47;;;;;;;;;;5052892;28;20448;-74
2024/01/05 00:04:18;;;;;;;55.80;2.60;;;;;;;;;;5052522;28;20467;-74
2024/01/05 00:06:45;;;;;;;55.90;2.40;;;;;;;;;;5051806;28;20461;-74
2024/01/05 00:09:13;;;;;;;55.77;2.77;;;;;;;;;;5048012;28;20534;-74
2024/01/05 00:11:41;;;;;;;55.90;2.40;;;;;;;;;;5052744;28;20458;-74
2024/01/05 00:14:08;;;;;;;55.67;2.43;;;;;;;;;;5052518;28;20819;-74
2024/01/05 00:16:35;;;;;;;55.77;2.57;;;;;;;;;;5052508;28;20486;-74
2024/01/05 00:19:02;;;;;;;55.73;2.17;;;;;;;;;;5052472;28;20471;-74
2024/01/05 00:21:29;;;;;;;56.00;2.70;;;;;;;;;;5052915;28;20455;-74
2024/01/05 00:23:57;;;;;;;56.00;3.10;;;;;;;;;;5052595;28;20469;-74
2024/01/05 00:26:26;;;;;;;55.70;2.57;;;;;;;;;;5052555;28;20459;-74
2024/01/05 00:28:53;;;;;;;55.80;2.40;;;;;;;;;;5052501;28;21001;-74
2024/01/05 00:31:20;;;;;;;55.57;2.77;;;;;;;;;;5052585;28;20542;-74
2024/01/05 00:33:47;;;;;;;55.87;3.07;;;;;;;;;;5052056;28;20468;-74
2024/01/05 00:36:14;;;;;;;55.77;2.83;;;;;;;;;;5052265;28;20449;-74
2024/01/05 00:38:47;;;;;;;55.60;2.40;;;;;;;;;;5052384;28;20453;-74
2024/01/05 00:41:15;;;;;;;55.67;2.50;;;;;;;;;;5052243;28;20465;-74
2024/01/05 00:43:43;;;;;;;56.03;3.23;;;;;;;;;;5052267;28;20470;-74
2024/01/05 00:46:10;;;;;;;55.80;2.73;;;;;;;;;;5051774;28;20459;-74
2024/01/05 00:48:37;;;;;;;56.30;2.50;;;;;;;;;;5052291;28;20935;-74
2024/01/05 00:51:04;;;;;;;56.20;2.90;;;;;;;;;;5052362;28;20456;-74
2024/01/05 00:53:31;;;;;;;55.63;2.20;;;;;;;;;;5052015;28;20470;-74
2024/01/05 00:55:59;;;;;;;55.67;2.33;;;;;;;;;;5050978;28;20955;-74
2024/01/05 00:58:26;;;;;;;55.70;2.30;;;;;;;;;;5052008;28;20531;-74
2024/01/05 01:00:54;;;;;;;55.77;2.40;;;;;;;;;;5051888;28;20454;-74
2024/01/05 01:03:21;;;;;;;55.67;2.50;;;;;;;;;;5051762;28;20961;-74
2024/01/05 01:05:48;;;;;;;55.67;2.67;;;;;;;;;;5051805;28;20474;-74
2024/01/05 01:08:15;;;;;;;55.87;2.70;;;;;;;;;;5051868;28;20502;-74
2024/01/05 01:10:42;;;;;;;56.13;2.63;;;;;;;;;;5051879;28;20535;-74
2024/01/05 01:13:10;;;;;;;55.77;2.27;;;;;;;;;;5051340;28;20483;-74
2024/01/05 01:15:37;;;;;;;55.90;2.87;;;;;;;;;;5051937;28;20888;-74
2024/01/05 01:18:05;;;;;;;55.87;2.53;;;;;;;;;;5051615;28;20505;-74
2024/01/05 01:20:32;;;;;;;56.30;3.37;;;;;;;;;;5051498;28;20958;-74
2024/01/05 01:22:59;;;;;;;55.87;2.80;;;;;;;;;;5051358;28;20471;-74
2024/01/05 01:25:26;;;;;;;55.77;2.50;;;;;;;;;;5051451;28;20451;-74
2024/01/05 01:27:54;;;;;;;55.37;2.20;;;;;;;;;;5051470;28;20626;-74
2024/01/05 01:30:21;;;;;;;55.60;2.50;;;;;;;;;;5051632;28;20457;-74
2024/01/05 01:32:48;;;;;;;56.40;3.43;;;;;;;;;;5051246;28;21014;-74
2024/01/05 01:35:16;;;;;;;55.80;2.37;;;;;;;;;;5051200;28;20948;-74
2024/01/05 01:37:42;;;;;;;55.60;2.30;;;;;;;;;;5051374;28;20482;-74
2024/01/05 01:40:10;;;;;;;56.00;2.63;;;;;;;;;;5050845;28;20831;-74
2024/01/05 01:42:37;;;;;;;55.80;2.73;;;;;;;;;;5049095;28;20486;-74
2024/01/05 01:45:05;;;;;;;55.73;2.90;;;;;;;;;;5050911;28;20453;-74
2024/01/05 01:47:32;;;;;;;55.97;2.93;;;;;;;;;;5051244;28;20807;-74
2024/01/05 01:49:59;;;;;;;55.60;2.70;;;;;;;;;;5050506;28;20470;-74
2024/01/05 01:52:28;;;;;;;55.97;2.80;;;;;;;;;;5043955;28;20443;-74
2024/01/05 01:54:55;;;;;;;55.73;2.50;;;;;;;;;;5050770;28;20451;-74
2024/01/05 01:57:22;;;;;;;55.80;2.63;;;;;;;;;;5043179;28;20483;-74
2024/01/05 01:59:50;;;;;;;55.97;2.70;;;;;;;;;;5046226;28;20482;-74
2024/01/05 02:02:17;;;;;;;58.30;4.00;;;;;;;;;;5050179;28;20454;-74
2024/01/05 02:04:45;;;;;;;55.53;2.30;;;;;;;;;;5050667;28;20482;-74
2024/01/05 02:07:12;;;;;;;55.87;2.70;;;;;;;;;;5050361;28;20817;-74
2024/01/05 02:09:42;;;;;;;55.60;2.70;;;;;;;;;;5049676;28;20459;-74
2024/01/05 02:12:09;;;;;;;55.37;2.23;;;;;;;;;;5046511;28;20554;-74
2024/01/05 02:14:36;;;;;;;55.57;2.30;;;;;;;;;;5050646;28;20471;-74
2024/01/05 02:17:03;;;;;;;55.80;2.53;;;;;;;;;;5050447;28;20497;-74
2024/01/05 02:19:30;;;;;;;55.57;2.10;;;;;;;;;;5050794;28;20458;-74
2024/01/05 02:22:00;;;;;;;55.90;3.13;;;;;;;;;;5050754;28;20822;-74
2024/01/05 02:24:28;;;;;;;55.57;2.40;;;;;;;;;;5050601;28;20569;-74
2024/01/05 02:26:55;;;;;;;55.57;2.50;;;;;;;;;;5050910;28;20446;-74
2024/01/05 02:29:22;;;;;;;55.60;2.50;;;;;;;;;;5042781;28;20452;-74
2024/01/05 02:31:50;;;;;;;55.53;2.50;;;;;;;;;;5050919;28;20900;-74
2024/01/05 02:34:17;;;;;;;56.57;3.67;;;;;;;;;;5050258;28;20538;-74
2024/01/05 02:36:44;;;;;;;55.57;2.37;;;;;;;;;;5050634;28;20465;-74
2024/01/05 02:39:12;;;;;;;55.80;2.40;;;;;;;;;;5050365;28;20497;-74
2024/01/05 02:41:41;;;;;;;55.80;2.40;;;;;;;;;;5050281;28;20446;-74
2024/01/05 02:44:08;;;;;;;55.47;2.10;;;;;;;;;;5049960;28;20477;-74
2024/01/05 02:46:37;;;;;;;55.67;2.40;;;;;;;;;;5050523;28;20441;-74
2024/01/05 02:49:04;;;;;;;56.70;3.17;;;;;;;;;;5050526;28;20489;-74
2024/01/05 02:51:31;;;;;;;56.00;2.70;;;;;;;;;;5050317;28;21008;-74
2024/01/05 02:53:58;;;;;;;55.80;2.53;;;;;;;;;;5050489;28;20462;-74
2024/01/05 02:56:25;;;;;;;56.77;3.03;;;;;;;;;;5050317;28;20841;-74
2024/01/05 02:58:54;;;;;;;55.50;2.20;;;;;;;;;;5050208;28;20498;-74
2024/01/05 03:01:21;;;;;;;55.90;2.70;;;;;;;;;;5049686;28;20442;-74
2024/01/05 03:03:49;;;;;;;55.47;2.30;;;;;;;;;;5050263;28;20471;-74
2024/01/05 03:06:16;;;;;;;55.50;2.50;;;;;;;;;;5050299;28;20459;-74
2024/01/05 03:08:43;;;;;;;55.57;2.40;;;;;;;;;;5050288;28;20458;-74
2024/01/05 03:11:11;;;;;;;55.60;2.13;;;;;;;;;;5050075;28;20855;-74
2024/01/05 03:13:38;;;;;;;55.40;2.40;;;;;;;;;;5050534;28;20480;-74
2024/01/05 03:16:07;;;;;;;55.70;2.40;;;;;;;;;;5050101;28;20451;-74
2024/01/05 03:18:34;;;;;;;56.40;2.80;;;;;;;;;;5050119;28;20860;-74
2024/01/05 03:21:01;;;;;;;55.77;2.50;;;;;;;;;;5053356;28;20461;-74
2024/01/05 03:23:28;;;;;;;55.70;2.40;;;;;;;;;;5053966;28;20471;-74
2024/01/05 03:25:56;;;;;;;55.67;2.37;;;;;;;;;;5054323;28;20872;-74
2024/01/05 03:28:24;;;;;;;56.00;2.63;;;;;;;;;;5053838;28;20541;-74
2024/01/05 03:30:51;;;;;;;55.47;2.40;;;;;;;;;;5053832;28;20455;-74
2024/01/05 03:33:22;;;;;;;55.67;2.40;;;;;;;;;;5053681;28;20470;-74
2024/01/05 03:35:49;;;;;;;55.90;2.50;;;;;;;;;;5053412;28;20943;-74
2024/01/05 03:38:16;;;;;;;55.70;2.47;;;;;;;;;;5053272;28;21012;-74
2024/01/05 03:40:43;;;;;;;55.27;2.47;;;;;;;;;;5053558;28;20448;-74
2024/01/05 03:43:10;;;;;;;55.97;2.40;;;;;;;;;;5053786;28;20809;-74
2024/01/05 03:45:37;;;;;;;55.60;2.50;;;;;;;;;;5053310;28;20465;-74
2024/01/05 03:48:05;;;;;;;55.47;2.40;;;;;;;;;;5053271;28;20831;-74
2024/01/05 03:50:34;;;;;;;55.90;2.60;;;;;;;;;;5053338;28;20494;-74
2024/01/05 03:53:01;;;;;;;55.67;2.60;;;;;;;;;;5053424;28;20533;-74
2024/01/05 03:55:28;;;;;;;55.80;2.60;;;;;;;;;;5053214;28;20459;-74
2024/01/05 03:57:55;;;;;;;55.63;2.20;;;;;;;;;;5053064;28;20492;-74
2024/01/05 04:00:23;;;;;;;55.77;2.70;;;;;;;;;;5053475;28;20469;-73
2024/01/05 04:02:50;;;;;;;55.70;2.80;;;;;;;;;;5053165;28;20497;-72
2024/01/05 04:05:17;;;;;;;56.00;2.60;;;;;;;;;;5052654;28;20447;-72
2024/01/05 04:07:46;;;;;;;55.63;2.50;;;;;;;;;;5053387;28;20637;-72
2024/01/05 04:10:13;;;;;;;55.53;2.30;;;;;;;;;;5053347;28;20451;-72
2024/01/05 04:12:40;;;;;;;55.57;2.60;;;;;;;;;;5052874;28;20466;-72
2024/01/05 04:15:08;;;;;;;55.80;2.67;;;;;;;;;;5051766;28;20455;-73
2024/01/05 04:17:35;;;;;;;56.10;2.90;;;;;;;;;;5052568;28;20466;-73
2024/01/05 04:20:02;;;;;;;55.60;2.90;;;;;;;;;;5052664;28;20458;-73
2024/01/05 04:22:31;;;;;;;55.53;2.20;;;;;;;;;;5044936;28;20447;-73
2024/01/05 04:24:59;;;;;;;55.70;2.40;;;;;;;;;;5052573;28;20824;-73
2024/01/05 04:27:26;;;;;;;55.77;2.73;;;;;;;;;;5052801;28;20439;-73
2024/01/05 04:29:53;;;;;;;55.87;2.70;;;;;;;;;;5052652;28;20457;-73
2024/01/05 04:32:20;;;;;;;55.60;2.40;;;;;;;;;;5051333;28;20447;-73
2024/01/05 04:34:47;;;;;;;55.77;2.47;;;;;;;;;;5052511;28;20448;-73
2024/01/05 04:37:14;;;;;;;55.70;2.60;;;;;;;;;;5052657;28;20446;-73
2024/01/05 04:39:43;;;;;;;55.97;3.10;;;;;;;;;;5052198;28;20483;-73
2024/01/05 04:42:12;;;;;;;55.73;2.57;;;;;;;;;;5052486;28;20457;-73
2024/01/05 04:44:39;;;;;;;55.80;2.50;;;;;;;;;;5052068;28;20915;-73
2024/01/05 04:47:06;;;;;;;55.90;2.60;;;;;;;;;;5052190;28;20454;-73
2024/01/05 04:49:33;;;;;;;55.77;2.80;;;;;;;;;;5052266;28;20447;-73
2024/01/05 04:52:01;;;;;;;56.27;2.77;;;;;;;;;;5052724;28;20451;-73
2024/01/05 04:54:28;;;;;;;55.63;2.37;;;;;;;;;;5051880;28;20469;-73
2024/01/05 04:56:55;;;;;;;56.00;2.67;;;;;;;;;;5052051;28;20450;-73
2024/01/05 04:59:23;;;;;;;55.77;2.67;;;;;;;;;;5052403;28;20493;-73
2024/01/05 05:01:51;;;;;;;55.67;2.50;;;;;;;;;;5052301;28;20818;-73
2024/01/05 05:04:18;;;;;;;55.80;2.50;;;;;;;;;;5051485;28;20836;-73
2024/01/05 05:06:45;;;;;;;55.77;3.00;;;;;;;;;;5051980;28;20455;-73
2024/01/05 05:09:13;;;;;;;55.67;2.30;;;;;;;;;;5057150;28;20473;-73
2024/01/05 05:11:40;;;;;;;55.57;2.30;;;;;;;;;;5058737;28;20477;-73
2024/01/05 05:14:07;;;;;;;55.73;2.80;;;;;;;;;;5058779;28;20520;-72
2024/01/05 05:16:36;;;;;;;55.67;2.60;;;;;;;;;;5059291;28;20465;-73
2024/01/05 05:19:04;;;;;;;55.57;2.40;;;;;;;;;;5056164;28;20486;-72
2024/01/05 05:21:31;;;;;;;55.87;2.60;;;;;;;;;;5051850;28;20460;-72
2024/01/05 05:23:58;;;;;;;55.50;2.20;;;;;;;;;;5051940;28;20474;-72
2024/01/05 05:26:25;;;;;;;55.43;2.40;;;;;;;;;;5051205;28;20461;-73
2024/01/05 05:28:52;;;;;;;56.30;3.40;;;;;;;;;;5051558;28;20434;-73
2024/01/05 05:31:19;;;;;;;55.37;2.50;;;;;;;;;;5051117;28;20454;-73
2024/01/05 05:33:48;;;;;;;55.70;2.30;;;;;;;;;;5051339;28;20473;-73
2024/01/05 05:36:15;;;;;;;55.60;2.30;;;;;;;;;;5050227;28;20943;-73
2024/01/05 05:38:42;;;;;;;55.80;2.40;;;;;;;;;;5046105;28;20498;-72
2024/01/05 05:41:09;;;;;;;55.80;2.63;;;;;;;;;;5051032;28;20462;-73
2024/01/05 05:43:37;;;;;;;55.90;3.03;;;;;;;;;;5050887;28;20482;-72
2024/01/05 05:46:05;;;;;;;55.50;2.50;;;;;;;;;;5051036;28;20453;-72
2024/01/05 05:48:32;;;;;;;55.47;2.10;;;;;;;;;;5043329;28;20443;-72
2024/01/05 05:51:00;;;;;;;55.57;2.30;;;;;;;;;;5051395;28;20871;-72
2024/01/05 05:53:27;;;;;;;55.50;2.30;;;;;;;;;;5050960;28;21012;-72
2024/01/05 05:55:54;;;;;;;55.57;2.53;;;;;;;;;;5051119;28;20814;-73
2024/01/05 05:58:22;;;;;;;55.70;2.60;;;;;;;;;;5051228;28;20490;-72
2024/01/05 06:00:50;;;;;;;55.57;2.40;;;;;;;;;;5051213;28;20452;-73
2024/01/05 06:03:17;;;;;;;55.50;2.30;;;;;;;;;;5050865;28;20777;-72
2024/01/05 06:05:44;;;;;;;55.53;2.40;;;;;;;;;;5050841;28;20458;-72
2024/01/05 06:08:12;;;;;;;55.40;2.20;;;;;;;;;;5050853;28;20445;-73
2024/01/05 06:10:39;;;;;;;55.70;2.50;;;;;;;;;;5051087;28;20823;-72
2024/01/05 06:13:07;;;;;;;55.70;2.30;;;;;;;;;;5050982;28;20855;-72
2024/01/05 06:15:34;;;;;;;55.53;2.43;;;;;;;;;;5050976;28;20446;-72
2024/01/05 06:18:01;;;;;;;55.37;2.00;;;;;;;;;;5050352;28;20548;-73
2024/01/05 06:20:28;;;;;;;55.60;2.60;;;;;;;;;;5050668;28;20804;-73
2024/01/05 06:22:55;;;;;;;55.60;2.20;;;;;;;;;;5048470;28;20482;-73
2024/01/05 06:25:23;;;;;;;55.53;2.20;;;;;;;;;;5050595;28;20456;-73
2024/01/05 06:27:50;;;;;;;55.30;2.40;;;;;;;;;;5050657;28;20969;-73
2024/01/05 06:30:18;;;;;;;55.50;2.10;;;;;;;;;;5050689;28;20447;-72
2024/01/05 06:32:45;;;;;;;55.30;2.20;;;;;;;;;;5050858;28;20466;-72
2024/01/05 06:35:13;;;;;;;55.70;2.30;;;;;;;;;;5050321;28;20452;-72
2024/01/05 06:37:40;;;;;;;55.67;2.67;;;;;;;;;;5051101;28;20545;-72
2024/01/05 06:40:07;;;;;;;55.30;2.10;;;;;;;;;;5050687;28;20490;-73
2024/01/05 06:42:36;;;;;;;55.37;2.20;;;;;;;;;;5050619;28;20482;-72
2024/01/05 06:45:02;;;;;;;55.37;2.37;;;;;;;;;;5050473;28;20834;-72
2024/01/05 06:47:29;;;;;;;55.37;1.90;;;;;;;;;;5050538;28;20452;-72
2024/01/05 06:49:56;;;;;;;55.70;2.40;;;;;;;;;;5050661;28;20949;-72
2024/01/05 06:52:23;;;;;;;55.33;2.13;;;;;;;;;;5050784;28;20819;-73
2024/01/05 06:54:50;;;;;;;55.47;2.40;;;;;;;;;;5052203;28;20453;-73
2024/01/05 06:57:18;;;;;;;55.57;2.20;;;;;;;;;;5054512;28;20443;-73
2024/01/05 06:59:46;;;;;;;55.40;2.20;;;;;;;;;;5054314;28;20493;-73
2024/01/05 07:02:13;;;;;;;55.60;2.30;;;;;;;;;;5054322;28;20464;-73
2024/01/05 07:04:41;;;;;;;55.53;2.67;;;;;;;;;;5053949;28;20459;-73
2024/01/05 07:07:08;;;;;;;55.57;2.20;;;;;;;;;;5054598;28;20459;-73
2024/01/05 07:09:36;;;;;;;55.43;2.23;;;;;;;;;;5054339;28;20454;-73
2024/01/05 07:12:03;;;;;;;55.50;2.50;;;;;;;;;;5054168;28;20461;-73
2024/01/05 07:14:30;;;;;;;55.60;2.30;;;;;;;;;;5053523;28;20473;-73
2024/01/05 07:16:58;;;;;;;55.83;2.97;;;;;;;;;;5053941;28;20463;-73
2024/01/05 07:19:25;;;;;;;55.53;2.30;;;;;;;;;;5054234;28;20544;-73
2024/01/05 07:21:53;;;;;;;55.60;2.30;;;;;;;;;;5054272;28;20451;-73
2024/01/05 07:24:20;;;;;;;55.67;2.47;;;;;;;;;;5053473;28;20471;-73
2024/01/05 07:26:47;;;;;;;55.60;2.40;;;;;;;;;;5054187;28;20553;-73
2024/01/05 07:29:15;;;;;;;55.67;2.40;;;;;;;;;;5053802;28;20454;-73
2024/01/05 07:31:42;;;;;;;55.70;2.40;;;;;;;;;;5053734;28;20792;-73
2024/01/05 07:34:10;;;;;;;55.47;2.30;;;;;;;;;;5053669;28;20475;-73
2024/01/05 07:36:42;;;;;;;55.70;2.30;;;;;;;;;;5045571;28;20447;-73
2024/01/05 07:39:11;;;;;;;55.57;2.40;;;;;;;;;;5053802;28;20517;-73
2024/01/05 07:41:38;;;;;;;55.77;2.40;;;;;;;;;;5053677;28;20451;-73
2024/01/05 07:44:05;;;;;;;55.77;2.43;;;;;;;;;;5053348;28;20467;-73
2024/01/05 07:46:32;;;;;;;56.10;3.10;;;;;;;;;;5053386;28;20828;-73
2024/01/05 07:48:59;;;;;;;57.03;3.47;;;;;;;;;;5053877;28;20473;-73
2024/01/05 07:51:28;;;;;;;55.70;2.70;;;;;;;;;;5053314;28;20446;-73
2024/01/05 07:53:55;;;;;;;55.57;2.20;;;;;;;;;;5053372;28;20471;-73
2024/01/05 07:56:22;;;;;;;55.57;2.50;;;;;;;;;;5053133;28;20461;-73
2024/01/05 07:58:49;;;;;;;55.37;2.30;;;;;;;;;;5053248;28;21010;-73
2024/01/05 08:01:16;;;;;;;55.33;2.10;;;;;;;;;;5053386;28;20462;-73
2024/01/05 08:03:44;;;;;;;55.33;2.40;;;;;;;;;;5053154;28;20504;-73
2024/01/05 08:06:14;;;;;;;55.50;2.13;;;;;;;;;;5052848;28;20513;-73
2024/01/05 08:08:43;;;;;;;55.77;2.60;;;;;;;;;;5053181;28;20451;-73
2024/01/05 08:11:10;;;;;;;55.70;2.33;;;;;;;;;;5052887;28;20459;-73
2024/01/05 08:13:37;;;;;;;55.60;2.20;;;;;;;;;;5052855;28;20466;-73
2024/01/05 08:16:04;;;;;;;56.00;2.90;;;;;;;;;;5052852;28;20456;-73
2024/01/05 08:18:31;;;;;;;55.47;2.20;;;;;;;;;;5052717;28;20458;-73
2024/01/05 08:20:58;;;;;;;55.43;2.20;;;;;;;;;;5052737;28;20479;-73
2024/01/05 08:23:25;;;;;;;55.30;2.23;;;;;;;;;;5052620;28;20475;-73
2024/01/05 08:25:54;;;;;;;55.27;2.03;;;;;;;;;;5052673;28;20457;-73
2024/01/05 08:28:21;;;;;;;55.27;1.90;;;;;;;;;;5052686;28;20452;-73
2024/01/05 08:30:48;;;;;;;55.47;2.33;;;;;;;;;;5052979;28;20812;-73
2024/01/05 08:33:15;;;;;;;55.27;2.33;;;;;;;;;;5052925;28;20492;-73
2024/01/05 08:35:43;;;;;;;55.33;2.50;;;;;;;;;;5052659;28;20463;-73
2024/01/05 08:38:10;;;;;;;55.50;2.03;;;;;;;;;;5052729;28;20927;-73
2024/01/05 08:40:37;;;;;;;55.70;2.50;;;;;;;;;;5052619;28;20835;-73
2024/01/05 08:43:06;;;;;;;55.70;2.70;;;;;;;;;;5052457;28;20478;-73
2024/01/05 08:45:34;;;;;;;55.53;2.23;;;;;;;;;;5052357;28;20451;-73
2024/01/05 08:48:01;;;;;;;55.37;2.43;;;;;;;;;;5052304;28;20961;-73
2024/01/05 08:50:28;;;;;;;55.70;2.83;;;;;;;;;;5052243;28;20462;-73
2024/01/05 08:52:55;;;;;;;55.50;2.37;;;;;;;;;;5052160;28;20582;-73
2024/01/05 08:55:22;;;;;;;55.33;2.00;;;;;;;;;;5052151;28;20443;-73
2024/01/05 08:57:49;;;;;;;55.70;2.13;;;;;;;;;;5052193;28;20455;-73
2024/01/05 09:00:19;;;;;;;55.67;2.20;;;;;;;;;;5052134;28;20491;-73
2024/01/05 09:02:46;;;;;;;55.50;2.10;;;;;;;;;;5052324;28;20875;-73
2024/01/05 09:05:13;;;;;;;55.33;2.10;;;;;;;;;;5051907;28;20455;-73
2024/01/05 09:07:40;;;;;;;55.37;2.17;;;;;;;;;;5051787;28;20447;-73
2024/01/05 09:10:09;;;;;;;55.40;1.87;;;;;;;;;;5052284;28;20448;-73
2024/01/05 09:12:36;;;;;;;55.40;1.87;;;;;;;;;;5051850;28;20986;-72
2024/01/05 09:15:03;;;;;;;55.27;2.10;;;;;;;;;;5051843;28;20858;-73
2024/01/05 09:17:31;;;;;;;55.47;2.00;;;;;;;;;;5051009;28;20470;-73
2024/01/05 09:19:58;;;;;;;55.67;2.20;;;;;;;;;;5051734;28;20517;-73
2024/01/05 09:22:25;;;;;;;55.80;2.77;;;;;;;;;;5051817;28;20954;-73
2024/01/05 09:24:53;;;;;;;55.47;2.10;;;;;;;;;;5051619;28;20448;-73
2024/01/05 09:27:20;;;;;;;55.40;2.23;;;;;;;;;;5052024;28;20456;-73
2024/01/05 09:29:47;;;;;;;55.70;2.53;;;;;;;;;;5051628;28;20450;-73
2024/01/05 09:32:15;;;;;;;55.37;1.90;;;;;;;;;;5051535;28;20455;-73
2024/01/05 09:34:44;;;;;;;55.50;2.20;;;;;;;;;;5051865;28;20460;-73
2024/01/05 09:37:11;;;;;;;55.40;2.00;;;;;;;;;;5051889;28;20451;-73
2024/01/05 09:39:39;;;;;;;55.07;1.90;;;;;;;;;;5052545;28;20494;-73
2024/01/05 09:42:06;;;;;;;55.53;2.40;;;;;;;;;;5051912;28;20561;-73
2024/01/05 09:44:34;;;;;;;56.30;2.50;;;;;;;;;;5052486;28;20471;-73
2024/01/05 09:47:01;;;;;;;55.90;2.40;;;;;;;;;;5052025;28;20954;-73
2024/01/05 09:49:29;;;;;;;55.70;2.80;;;;;;;;;;5052068;28;20452;-73
2024/01/05 09:51:58;;;;;;;57.03;2.77;;;;;;;;;;5052264;28;20524;-73
2024/01/05 09:54:25;;;;;;;55.20;1.80;;;;;;;;;;5051393;28;20467;-73
2024/01/05 09:56:53;;;;;;;55.50;2.50;;;;;;;;;;5053080;28;20458;-73
2024/01/05 09:59:20;;;;;;;55.50;1.97;;;;;;;;;;5057774;28;20446;-73
2024/01/05 10:01:49;;;;;;;55.60;1.87;;;;;;;;;;5059790;28;20443;-73
2024/01/05 10:04:19;;;;;;;55.73;2.67;;;;;;;;;;5058301;28;20468;-74
2024/01/05 10:06:46;;;;;;;55.17;1.93;;;;;;;;;;5050493;28;20456;-74
2024/01/05 10:09:14;;;;;;;55.57;2.20;;;;;;;;;;5058707;28;20454;-74
2024/01/05 10:11:42;;;;;;;55.53;2.33;;;;;;;;;;5058561;28;20486;-74
2024/01/05 10:14:11;;;;;;;55.57;2.10;;;;;;;;;;5056472;28;20812;-74
2024/01/05 10:16:39;;;;;;;55.20;1.80;;;;;;;;;;5051353;28;20446;-74
2024/01/05 10:19:12;;;;;;;55.60;1.80;;;;;;;;;;5051513;28;20477;-73
2024/01/05 10:21:40;;;;;;;55.47;1.80;;;;;;;;;;5050997;28;20448;-73
2024/01/05 10:24:14;;;;;;;55.40;2.30;;;;;;;;;;5050638;28;20504;-73
2024/01/05 10:26:42;;;;;;;55.27;2.00;;;;;;;;;;5050833;28;20861;-74
2024/01/05 10:29:15;;;;;;;55.40;2.13;;;;;;;;;;5051597;28;20451;-74
2024/01/05 10:31:42;;;;;;;55.63;2.00;;;;;;;;;;5054701;28;20446;-74
2024/01/05 10:34:09;;;;;;;55.60;1.93;;;;;;;;;;5054469;28;20465;-74
2024/01/05 10:36:36;;;;;;;55.50;1.90;;;;;;;;;;5054770;28;20447;-74
2024/01/05 10:39:04;;;;;;;55.67;2.23;;;;;;;;;;5054605;28;20791;-74
2024/01/05 10:41:32;;;;;;;55.80;2.47;;;;;;;;;;5054377;28;20485;-74
2024/01/05 10:43:59;;;;;;;55.37;2.00;;;;;;;;;;5054761;28;20473;-74
2024/01/05 10:46:28;;;;;;;55.70;2.37;;;;;;;;;;5054473;28;20445;-71
2024/01/05 10:48:55;;;;;;;55.37;2.20;;;;;;;;;;5054594;28;20462;-74
2024/01/05 10:51:23;;;;;;;55.37;1.83;;;;;;;;;;5054797;28;20446;-74
2024/01/05 10:53:50;;;;;;;55.40;1.77;;;;;;;;;;5054395;28;20474;-74
2024/01/05 10:56:19;;;;;;;55.47;2.00;;;;;;;;;;5054163;28;20458;-74
2024/01/05 10:58:48;;;;;;;55.50;1.83;;;;;;;;;;5054302;28;20506;-74
2024/01/05 11:01:18;;;;;;;55.57;1.63;;;;;;;;;;5054267;28;20501;-74
2024/01/05 11:03:45;;;;;;;55.30;1.70;;;;;;;;;;5054068;28;20840;-71
2024/01/05 11:06:13;;;;;;;55.57;2.13;;;;;;;;;;5053860;28;20454;-73
2024/01/05 11:08:44;;;;;;;56.30;1.87;;;;;;;;;;5054380;28;20943;-72
2024/01/05 11:11:16;;;;;;;55.60;1.67;;;;;;;;;;5053990;28;20445;-73
2024/01/05 11:14:05;;;;;;;55.30;1.80;;;;;;;;;;5054412;28;20473;-74
2024/01/05 11:16:49;;;;;;;55.97;2.53;;;;;;;;;;5053529;28;20445;-73
2024/01/05 11:19:46;;;;;;;56.10;2.57;;;;;;;;;;5054455;28;20462;-73
2024/01/05 11:22:15;;;;;;;55.27;1.80;;;;;;;;;;5055678;28;20541;-73
2024/01/05 11:24:43;;;;;;;55.47;1.80;;;;;;;;;;5057582;28;20454;-73
2024/01/05 11:27:29;;;;;;;55.50;1.97;;;;;;;;;;5057174;28;20452;-73
2024/01/05 11:29:57;;;;;;;57.60;2.73;;;;;;;;;;5056587;28;20442;-73
2024/01/05 11:32:38;;;;;;;55.70;1.83;;;;;;;;;;5056854;28;20449;-73
2024/01/05 11:35:26;;;;;;;55.27;1.90;;;;;;;;;;5053636;28;20447;-73
2024/01/05 11:37:54;;;;;;;55.80;2.30;;;;;;;;;;5053478;28;20454;-73
2024/01/05 11:40:28;;;;;;;55.37;2.17;;;;;;;;;;5053060;28;20491;-73
2024/01/05 11:42:57;;;;;;;55.77;2.10;;;;;;;;;;5053353;28;20519;-73
2024/01/05 11:45:39;;;;;;;54.87;1.90;;;;;;;;;;5053219;28;20488;-73
2024/01/05 11:48:07;;;;;;;55.47;1.77;;;;;;;;;;5053215;28;20572;-73
2024/01/05 11:50:35;;;;;;;55.47;1.93;;;;;;;;;;5053542;28;20448;-73
2024/01/05 11:53:09;;;;;;;55.70;1.87;;;;;;;;;;5053394;28;20830;-73
2024/01/05 11:55:40;;;;;;;55.57;1.90;;;;;;;;;;5053042;28;21040;-73
2024/01/05 11:58:07;;;;;;;55.60;1.80;;;;;;;;;;5053368;28;20480;-73
2024/01/05 12:00:35;;;;;;;55.57;2.00;;;;;;;;;;5053114;28;20489;-73
2024/01/05 12:03:02;;;;;;;54.80;1.70;;;;;;;;;;5053132;28;20478;-73
2024/01/05 12:05:31;;;;;;;55.60;1.93;;;;;;;;;;5052994;28;20457;-73
2024/01/05 12:07:58;;;;;;;55.47;1.90;;;;;;;;;;5053180;28;20938;-73
2024/01/05 12:10:27;;;;;;;55.20;1.93;;;;;;;;;;5053089;28;20477;-73
2024/01/05 12:12:54;;;;;;;55.40;1.80;;;;;;;;;;5044955;28;20998;-74
2024/01/05 12:15:21;;;;;;;55.30;1.70;;;;;;;;;;5053080;28;20554;-74
2024/01/05 12:17:48;;;;;;;55.80;1.90;;;;;;;;;;5052828;28;20442;-74
2024/01/05 12:20:16;;;;;;;55.57;1.80;;;;;;;;;;5053115;28;20861;-73
2024/01/05 12:22:44;;;;;;;55.50;1.80;;;;;;;;;;5052763;28;20473;-73
2024/01/05 12:25:11;;;;;;;55.37;1.63;;;;;;;;;;5052687;28;20451;-74
2024/01/05 12:27:39;;;;;;;55.67;1.70;;;;;;;;;;5053014;28;20451;-74
2024/01/05 12:30:06;;;;;;;55.63;1.87;;;;;;;;;;5052887;28;20540;-73
2024/01/05 12:32:34;;;;;;;55.67;1.73;;;;;;;;;;5052554;28;20469;-73
2024/01/05 12:35:01;;;;;;;55.37;1.90;;;;;;;;;;5052608;28;20456;-73
2024/01/05 12:37:28;;;;;;;55.23;1.77;;;;;;;;;;5052454;28;20932;-74
2024/01/05 12:40:10;;;;;;;54.90;1.90;;;;;;;;;;5052913;28;20454;-73
2024/01/05 12:42:37;;;;;;;54.93;1.60;;;;;;;;;;5052388;28;20465;-73
2024/01/05 12:45:05;;;;;;;55.60;1.80;;;;;;;;;;5052346;28;20447;-73
2024/01/05 12:47:32;;;;;;;55.70;1.70;;;;;;;;;;5052272;28;20452;-74
2024/01/05 12:49:59;;;;;;;55.10;1.83;;;;;;;;;;5052317;28;20472;-73
2024/01/05 12:52:33;;;;;;;55.47;1.90;;;;;;;;;;5051021;28;20443;-73
2024/01/05 12:55:03;;;;;;;55.17;1.73;;;;;;;;;;5052124;28;20450;-73
2024/01/05 12:57:31;;;;;;;55.30;2.10;;;;;;;;;;5052231;28;20451;-74
2024/01/05 13:00:05;;;;;;;55.27;2.00;;;;;;;;;;5052368;28;20962;-74
2024/01/05 13:02:38;;;;;;;55.07;1.90;;;;;;;;;;5051988;28;20447;-73
2024/01/05 13:05:19;;;;;;;55.07;2.00;;;;;;;;;;5051725;28;20561;-73
2024/01/05 13:07:47;;;;;;;55.67;1.97;;;;;;;;;;5051864;28;20443;-74
2024/01/05 13:10:15;;;;;;;55.60;1.63;;;;;;;;;;5051891;28;20453;-73
2024/01/05 13:12:45;;;;;;;55.60;2.00;;;;;;;;;;5051638;28;20830;-72
2024/01/05 13:15:13;;;;;;;54.77;1.97;;;;;;;;;;5051543;28;20457;-73
2024/01/05 13:17:43;;;;;;;55.37;1.73;;;;;;;;;;5051499;28;21023;-74
2024/01/05 13:20:11;;;;;;;55.47;1.60;;;;;;;;;;5051700;28;20446;-74
2024/01/05 13:22:38;;;;;;;55.50;1.70;;;;;;;;;;5051422;28;20477;-73
2024/01/05 13:25:05;;;;;;;54.93;1.90;;;;;;;;;;5051567;28;20454;-73
2024/01/05 13:27:34;;;;;;;55.80;2.00;;;;;;;;;;5051558;28;20804;-74
2024/01/05 13:30:02;;;;;;;56.00;2.13;;;;;;;;;;5051392;28;20456;-74
2024/01/05 13:32:29;;;;;;;54.93;1.80;;;;;;;;;;5051728;28;20803;-73
2024/01/05 13:34:56;;;;;;;55.47;1.77;;;;;;;;;;5051261;28;20451;-73
2024/01/05 13:37:24;;;;;;;55.50;2.00;;;;;;;;;;5051489;28;20447;-73
2024/01/05 13:39:51;;;;;;;55.27;1.80;;;;;;;;;;5051416;28;20447;-73
2024/01/05 13:42:18;;;;;;;54.70;1.70;;;;;;;;;;5051140;28;21009;-73
2024/01/05 13:44:47;;;;;;;55.53;1.60;;;;;;;;;;5050882;28;20942;-73
2024/01/05 13:47:14;;;;;;;55.33;1.80;;;;;;;;;;5051598;28;20457;-73
2024/01/05 13:49:41;;;;;;;55.30;1.90;;;;;;;;;;5051209;28;20457;-73
2024/01/05 13:52:08;;;;;;;55.63;1.90;;;;;;;;;;5051191;28;20451;-73
2024/01/05 13:54:35;;;;;;;55.43;1.70;;;;;;;;;;5050801;28;20466;-73
2024/01/05 13:57:02;;;;;;;55.30;1.77;;;;;;;;;;5051078;28;20930;-73
2024/01/05 13:59:30;;;;;;;54.67;1.87;;;;;;;;;;5051308;28;20458;-73
2024/01/05 14:01:58;;;;;;;55.27;1.67;;;;;;;;;;5050981;28;21032;-73
2024/01/05 14:04:25;;;;;;;55.30;1.80;;;;;;;;;;5050557;28;20475;-73
2024/01/05 14:06:52;;;;;;;54.70;1.70;;;;;;;;;;5050954;28;20849;-73
2024/01/05 14:09:20;;;;;;;55.70;1.77;;;;;;;;;;5051079;28;20458;-73
2024/01/05 14:11:47;;;;;;;54.87;1.80;;;;;;;;;;5050643;28;20453;-73
2024/01/05 14:14:15;;;;;;;55.50;1.80;;;;;;;;;;5050669;28;20476;-73
2024/01/05 14:16:42;;;;;;;55.70;1.70;;;;;;;;;;5050864;28;20486;-73
2024/01/05 14:19:11;;;;;;;55.30;1.70;;;;;;;;;;5051021;28;20447;-73
2024/01/05 14:21:38;;;;;;;54.97;1.90;;;;;;;;;;5050848;28;20492;-73
2024/01/05 14:24:05;;;;;;;54.77;1.63;;;;;;;;;;5050562;28;20478;-73
2024/01/05 14:26:32;;;;;;;55.33;1.80;;;;;;;;;;5050721;28;20447;-74
2024/01/05 14:29:00;;;;;;;55.67;2.13;;;;;;;;;;5050942;28;20452;-74
2024/01/05 14:31:27;;;;;;;55.47;1.70;;;;;;;;;;5050716;28;20447;-74
2024/01/05 14:33:54;;;;;;;55.60;1.63;;;;;;;;;;5050487;28;20471;-72
2024/01/05 14:36:23;;;;;;;55.40;1.70;;;;;;;;;;5050549;28;20456;-73